sensor_id;sensor_type;location;lat;lon;timestamp;P1;durP1;ratioP1;P2;durP2;ratioP2
74922;SDS011;64715;44.760;37.678;2023-04-03T00:00:23;8.43;;;2.50;;
74922;SDS011;64715;44.760;37.678;2023-04-03T00:01:24;7.67;;;2.43;;
74922;SDS011;64715;44.760;37.678;2023-04-03T00:02:27;7.93;;;2.30;;
74922;SDS011;64715;44.760;37.678;2023-04-03T00:03:28;9.32;;;2.47;;
74922;SDS011;64715;44.760;37.678;2023-04-03T00:04:29;8.85;;;2.90;;
74922;SDS011;64715;44.760;37.678;2023-04-03T00:05:30;7.78;;;2.20;;
74922;SDS011;64715;44.760;37.678;2023-04-03T00:06:31;9.05;;;2.53;;
74922;SDS011;64715;44.760;37.678;2023-04-03T00:07:32;8.65;;;2.38;;
74922;SDS011;64715;44.760;37.678;2023-04-03T00:08:34;8.50;;;2.28;;
74922;SDS011;64715;44.760;37.678;2023-04-03T00:09:35;9.97;;;2.90;;
74922;SDS011;64715;44.760;37.678;2023-04-03T00:10:36;8.90;;;2.80;;
74922;SDS011;64715;44.760;37.678;2023-04-03T00:11:37;9.20;;;2.65;;
74922;SDS011;64715;44.760;37.678;2023-04-03T00:12:39;7.72;;;2.60;;
74922;SDS011;64715;44.760;37.678;2023-04-03T00:13:40;6.80;;;2.58;;
74922;SDS011;64715;44.760;37.678;2023-04-03T00:14:42;10.27;;;2.70;;
74922;SDS011;64715;44.760;37.678;2023-04-03T00:15:43;8.10;;;2.47;;
74922;SDS011;64715;44.760;37.678;2023-04-03T00:16:45;8.57;;;2.85;;
74922;SDS011;64715;44.760;37.678;2023-04-03T00:17:46;9.18;;;2.72;;
74922;SDS011;64715;44.760;37.678;2023-04-03T00:18:47;11.37;;;2.90;;
74922;SDS011;64715;44.760;37.678;2023-04-03T00:19:48;9.20;;;3.20;;
74922;SDS011;64715;44.760;37.678;2023-04-03T00:20:49;9.63;;;2.70;;
74922;SDS011;64715;44.760;37.678;2023-04-03T00:21:50;9.93;;;2.75;;
74922;SDS011;64715;44.760;37.678;2023-04-03T00:22:53;12.15;;;2.83;;
74922;SDS011;64715;44.760;37.678;2023-04-03T00:23:55;7.88;;;2.55;;
74922;SDS011;64715;44.760;37.678;2023-04-03T00:24:56;14.03;;;3.10;;
74922;SDS011;64715;44.760;37.678;2023-04-03T00:25:57;10.70;;;2.47;;
74922;SDS011;64715;44.760;37.678;2023-04-03T00:26:58;11.10;;;3.03;;
74922;SDS011;64715;44.760;37.678;2023-04-03T00:27:59;10.82;;;3.40;;
74922;SDS011;64715;44.760;37.678;2023-04-03T00:29:00;9.50;;;2.88;;
74922;SDS011;64715;44.760;37.678;2023-04-03T00:30:01;9.10;;;2.55;;
74922;SDS011;64715;44.760;37.678;2023-04-03T00:31:03;9.18;;;2.83;;
74922;SDS011;64715;44.760;37.678;2023-04-03T00:32:04;10.25;;;2.70;;
74922;SDS011;64715;44.760;37.678;2023-04-03T00:33:06;13.30;;;3.40;;
74922;SDS011;64715;44.760;37.678;2023-04-03T00:34:07;10.00;;;2.80;;
74922;SDS011;64715;44.760;37.678;2023-04-03T00:35:08;7.63;;;3.10;;
74922;SDS011;64715;44.760;37.678;2023-04-03T00:36:11;11.65;;;2.72;;
74922;SDS011;64715;44.760;37.678;2023-04-03T00:37:13;10.25;;;3.13;;
74922;SDS011;64715;44.760;37.678;2023-04-03T00:38:14;11.23;;;3.20;;
74922;SDS011;64715;44.760;37.678;2023-04-03T00:39:16;10.25;;;3.10;;
74922;SDS011;64715;44.760;37.678;2023-04-03T00:40:17;10.07;;;3.20;;
74922;SDS011;64715;44.760;37.678;2023-04-03T00:41:18;10.18;;;3.10;;
74922;SDS011;64715;44.760;37.678;2023-04-03T00:42:19;9.30;;;2.73;;
74922;SDS011;64715;44.760;37.678;2023-04-03T00:43:22;9.30;;;3.07;;
74922;SDS011;64715;44.760;37.678;2023-04-03T00:46:37;9.05;;;2.75;;
74922;SDS011;64715;44.760;37.678;2023-04-03T00:47:38;10.02;;;2.50;;
74922;SDS011;64715;44.760;37.678;2023-04-03T00:48:42;8.98;;;2.70;;
74922;SDS011;64715;44.760;37.678;2023-04-03T00:49:46;10.65;;;3.03;;
74922;SDS011;64715;44.760;37.678;2023-04-03T00:50:47;10.27;;;2.90;;
74922;SDS011;64715;44.760;37.678;2023-04-03T00:51:49;9.38;;;2.95;;
74922;SDS011;64715;44.760;37.678;2023-04-03T00:52:51;8.25;;;2.45;;
74922;SDS011;64715;44.760;37.678;2023-04-03T00:53:55;10.45;;;2.30;;
74922;SDS011;64715;44.760;37.678;2023-04-03T00:55:01;10.60;;;2.60;;
74922;SDS011;64715;44.760;37.678;2023-04-03T00:56:06;7.88;;;2.58;;
74922;SDS011;64715;44.760;37.678;2023-04-03T00:57:10;9.75;;;2.80;;
74922;SDS011;64715;44.760;37.678;2023-04-03T00:58:12;9.23;;;2.67;;
74922;SDS011;64715;44.760;37.678;2023-04-03T00:59:15;9.35;;;2.65;;
74922;SDS011;64715;44.760;37.678;2023-04-03T01:00:22;8.63;;;2.60;;
74922;SDS011;64715;44.760;37.678;2023-04-03T01:01:25;8.50;;;2.40;;
74922;SDS011;64715;44.760;37.678;2023-04-03T01:02:28;11.60;;;3.10;;
74922;SDS011;64715;44.760;37.678;2023-04-03T01:03:29;10.27;;;2.85;;
74922;SDS011;64715;44.760;37.678;2023-04-03T01:04:35;9.77;;;2.55;;
74922;SDS011;64715;44.760;37.678;2023-04-03T01:05:37;9.95;;;2.70;;
74922;SDS011;64715;44.760;37.678;2023-04-03T01:06:38;12.68;;;2.67;;
74922;SDS011;64715;44.760;37.678;2023-04-03T01:07:41;9.20;;;2.70;;
74922;SDS011;64715;44.760;37.678;2023-04-03T01:08:42;9.02;;;2.63;;
74922;SDS011;64715;44.760;37.678;2023-04-03T01:09:45;8.00;;;2.40;;
74922;SDS011;64715;44.760;37.678;2023-04-03T01:10:48;9.90;;;2.90;;
74922;SDS011;64715;44.760;37.678;2023-04-03T01:11:49;8.52;;;2.78;;
74922;SDS011;64715;44.760;37.678;2023-04-03T01:12:50;8.05;;;2.58;;
74922;SDS011;64715;44.760;37.678;2023-04-03T01:13:52;10.10;;;2.75;;
74922;SDS011;64715;44.760;37.678;2023-04-03T01:14:55;8.30;;;3.08;;
74922;SDS011;64715;44.760;37.678;2023-04-03T01:16:00;12.48;;;3.58;;
74922;SDS011;64715;44.760;37.678;2023-04-03T01:17:02;9.98;;;3.05;;
74922;SDS011;64715;44.760;37.678;2023-04-03T01:18:03;8.93;;;3.70;;
74922;SDS011;64715;44.760;37.678;2023-04-03T01:19:06;9.15;;;2.83;;
74922;SDS011;64715;44.760;37.678;2023-04-03T01:25:28;8.38;;;2.85;;
74922;SDS011;64715;44.760;37.678;2023-04-03T01:26:31;11.27;;;2.85;;
74922;SDS011;64715;44.760;37.678;2023-04-03T01:27:33;11.52;;;3.00;;
74922;SDS011;64715;44.760;37.678;2023-04-03T01:28:35;11.10;;;3.35;;
74922;SDS011;64715;44.760;37.678;2023-04-03T01:29:36;9.88;;;3.03;;
74922;SDS011;64715;44.760;37.678;2023-04-03T01:31:55;8.35;;;2.65;;
74922;SDS011;64715;44.760;37.678;2023-04-03T01:32:58;9.77;;;3.33;;
74922;SDS011;64715;44.760;37.678;2023-04-03T01:33:59;10.65;;;3.38;;
74922;SDS011;64715;44.760;37.678;2023-04-03T01:35:02;9.88;;;3.47;;
74922;SDS011;64715;44.760;37.678;2023-04-03T01:36:03;10.40;;;3.20;;
74922;SDS011;64715;44.760;37.678;2023-04-03T01:37:05;12.07;;;3.33;;
74922;SDS011;64715;44.760;37.678;2023-04-03T01:38:07;12.25;;;3.53;;
74922;SDS011;64715;44.760;37.678;2023-04-03T01:39:09;12.18;;;3.60;;
74922;SDS011;64715;44.760;37.678;2023-04-03T01:40:10;10.80;;;3.67;;
74922;SDS011;64715;44.760;37.678;2023-04-03T01:41:12;10.23;;;3.53;;
74922;SDS011;64715;44.760;37.678;2023-04-03T01:42:14;11.53;;;3.87;;
74922;SDS011;64715;44.760;37.678;2023-04-03T01:43:18;12.00;;;3.58;;
74922;SDS011;64715;44.760;37.678;2023-04-03T01:44:20;10.88;;;3.65;;
74922;SDS011;64715;44.760;37.678;2023-04-03T01:45:21;11.57;;;3.67;;
74922;SDS011;64715;44.760;37.678;2023-04-03T01:46:22;10.43;;;3.90;;
74922;SDS011;64715;44.760;37.678;2023-04-03T01:47:23;11.80;;;3.78;;
74922;SDS011;64715;44.760;37.678;2023-04-03T01:48:24;11.50;;;4.05;;
74922;SDS011;64715;44.760;37.678;2023-04-03T01:49:25;15.25;;;4.05;;
74922;SDS011;64715;44.760;37.678;2023-04-03T01:50:27;10.32;;;3.92;;
74922;SDS011;64715;44.760;37.678;2023-04-03T01:51:27;11.67;;;3.57;;
74922;SDS011;64715;44.760;37.678;2023-04-03T01:52:28;10.95;;;3.60;;
74922;SDS011;64715;44.760;37.678;2023-04-03T01:53:30;12.85;;;4.50;;
74922;SDS011;64715;44.760;37.678;2023-04-03T01:54:32;11.13;;;3.95;;
74922;SDS011;64715;44.760;37.678;2023-04-03T01:55:33;12.27;;;4.32;;
74922;SDS011;64715;44.760;37.678;2023-04-03T01:56:34;12.55;;;3.85;;
74922;SDS011;64715;44.760;37.678;2023-04-03T01:57:35;10.45;;;3.92;;
74922;SDS011;64715;44.760;37.678;2023-04-03T01:58:36;11.37;;;3.57;;
74922;SDS011;64715;44.760;37.678;2023-04-03T01:59:37;12.87;;;4.70;;
74922;SDS011;64715;44.760;37.678;2023-04-03T02:00:38;13.25;;;4.00;;
74922;SDS011;64715;44.760;37.678;2023-04-03T02:01:39;12.40;;;4.47;;
74922;SDS011;64715;44.760;37.678;2023-04-03T02:02:40;12.65;;;3.83;;
74922;SDS011;64715;44.760;37.678;2023-04-03T02:03:41;12.55;;;4.25;;
74922;SDS011;64715;44.760;37.678;2023-04-03T02:04:42;12.13;;;4.53;;
74922;SDS011;64715;44.760;37.678;2023-04-03T02:05:43;16.17;;;4.90;;
74922;SDS011;64715;44.760;37.678;2023-04-03T02:06:44;12.50;;;4.30;;
74922;SDS011;64715;44.760;37.678;2023-04-03T02:07:45;12.02;;;4.32;;
74922;SDS011;64715;44.760;37.678;2023-04-03T02:08:46;11.95;;;4.40;;
74922;SDS011;64715;44.760;37.678;2023-04-03T02:09:48;16.50;;;4.90;;
74922;SDS011;64715;44.760;37.678;2023-04-03T02:10:49;13.00;;;4.95;;
74922;SDS011;64715;44.760;37.678;2023-04-03T02:11:51;16.52;;;4.72;;
74922;SDS011;64715;44.760;37.678;2023-04-03T02:12:53;13.20;;;4.50;;
74922;SDS011;64715;44.760;37.678;2023-04-03T02:13:54;13.57;;;4.87;;
74922;SDS011;64715;44.760;37.678;2023-04-03T02:14:55;14.33;;;4.93;;
74922;SDS011;64715;44.760;37.678;2023-04-03T02:15:56;15.40;;;5.30;;
74922;SDS011;64715;44.760;37.678;2023-04-03T02:16:57;12.50;;;4.90;;
74922;SDS011;64715;44.760;37.678;2023-04-03T02:17:58;15.18;;;5.15;;
74922;SDS011;64715;44.760;37.678;2023-04-03T02:19:00;13.85;;;5.22;;
74922;SDS011;64715;44.760;37.678;2023-04-03T02:20:02;14.77;;;5.75;;
74922;SDS011;64715;44.760;37.678;2023-04-03T02:21:04;20.47;;;4.87;;
74922;SDS011;64715;44.760;37.678;2023-04-03T02:22:05;16.00;;;5.03;;
74922;SDS011;64715;44.760;37.678;2023-04-03T02:23:06;13.50;;;5.30;;
74922;SDS011;64715;44.760;37.678;2023-04-03T02:24:07;15.70;;;5.60;;
74922;SDS011;64715;44.760;37.678;2023-04-03T02:25:09;18.38;;;6.15;;
74922;SDS011;64715;44.760;37.678;2023-04-03T02:26:12;14.82;;;5.80;;
74922;SDS011;64715;44.760;37.678;2023-04-03T02:27:14;14.15;;;5.75;;
74922;SDS011;64715;44.760;37.678;2023-04-03T02:28:16;14.30;;;5.30;;
74922;SDS011;64715;44.760;37.678;2023-04-03T02:29:17;13.52;;;5.50;;
74922;SDS011;64715;44.760;37.678;2023-04-03T02:30:18;13.90;;;5.20;;
74922;SDS011;64715;44.760;37.678;2023-04-03T02:31:19;18.20;;;6.63;;
74922;SDS011;64715;44.760;37.678;2023-04-03T02:32:21;19.77;;;6.40;;
74922;SDS011;64715;44.760;37.678;2023-04-03T02:33:22;18.95;;;6.65;;
74922;SDS011;64715;44.760;37.678;2023-04-03T02:34:24;21.92;;;7.47;;
74922;SDS011;64715;44.760;37.678;2023-04-03T02:35:26;18.30;;;7.20;;
74922;SDS011;64715;44.760;37.678;2023-04-03T02:36:30;16.40;;;6.65;;
74922;SDS011;64715;44.760;37.678;2023-04-03T02:37:33;16.05;;;6.25;;
74922;SDS011;64715;44.760;37.678;2023-04-03T02:38:35;15.43;;;5.70;;
74922;SDS011;64715;44.760;37.678;2023-04-03T02:39:37;17.23;;;5.93;;
74922;SDS011;64715;44.760;37.678;2023-04-03T02:40:38;18.60;;;6.18;;
74922;SDS011;64715;44.760;37.678;2023-04-03T02:41:40;16.92;;;5.78;;
74922;SDS011;64715;44.760;37.678;2023-04-03T02:42:47;15.63;;;6.13;;
74922;SDS011;64715;44.760;37.678;2023-04-03T02:43:48;16.73;;;6.05;;
74922;SDS011;64715;44.760;37.678;2023-04-03T02:44:50;22.48;;;6.50;;
74922;SDS011;64715;44.760;37.678;2023-04-03T02:45:51;18.27;;;6.35;;
74922;SDS011;64715;44.760;37.678;2023-04-03T02:46:52;17.65;;;6.53;;
74922;SDS011;64715;44.760;37.678;2023-04-03T02:47:53;17.17;;;6.33;;
74922;SDS011;64715;44.760;37.678;2023-04-03T02:48:54;16.50;;;6.13;;
74922;SDS011;64715;44.760;37.678;2023-04-03T02:49:55;17.80;;;6.65;;
74922;SDS011;64715;44.760;37.678;2023-04-03T02:50:56;17.52;;;6.70;;
74922;SDS011;64715;44.760;37.678;2023-04-03T02:51:57;19.27;;;7.05;;
74922;SDS011;64715;44.760;37.678;2023-04-03T02:52:58;17.13;;;6.63;;
74922;SDS011;64715;44.760;37.678;2023-04-03T02:53:59;15.68;;;6.75;;
74922;SDS011;64715;44.760;37.678;2023-04-03T02:55:04;18.30;;;7.28;;
74922;SDS011;64715;44.760;37.678;2023-04-03T02:56:06;17.33;;;6.47;;
74922;SDS011;64715;44.760;37.678;2023-04-03T02:57:07;17.47;;;7.23;;
74922;SDS011;64715;44.760;37.678;2023-04-03T02:58:12;15.45;;;6.70;;
74922;SDS011;64715;44.760;37.678;2023-04-03T02:59:13;17.60;;;7.38;;
74922;SDS011;64715;44.760;37.678;2023-04-03T03:00:15;17.02;;;6.72;;
74922;SDS011;64715;44.760;37.678;2023-04-03T03:01:16;14.82;;;6.45;;
74922;SDS011;64715;44.760;37.678;2023-04-03T03:02:18;16.08;;;6.85;;
74922;SDS011;64715;44.760;37.678;2023-04-03T03:03:19;16.10;;;7.63;;
74922;SDS011;64715;44.760;37.678;2023-04-03T03:04:20;18.05;;;6.85;;
74922;SDS011;64715;44.760;37.678;2023-04-03T03:05:21;17.40;;;6.70;;
74922;SDS011;64715;44.760;37.678;2023-04-03T03:06:22;16.83;;;6.73;;
74922;SDS011;64715;44.760;37.678;2023-04-03T03:07:23;19.23;;;6.88;;
74922;SDS011;64715;44.760;37.678;2023-04-03T03:08:24;16.00;;;6.88;;
74922;SDS011;64715;44.760;37.678;2023-04-03T03:09:25;17.30;;;6.65;;
74922;SDS011;64715;44.760;37.678;2023-04-03T03:10:27;18.10;;;6.63;;
74922;SDS011;64715;44.760;37.678;2023-04-03T03:11:27;22.45;;;6.97;;
74922;SDS011;64715;44.760;37.678;2023-04-03T03:12:29;19.33;;;7.00;;
74922;SDS011;64715;44.760;37.678;2023-04-03T03:13:30;20.17;;;6.80;;
74922;SDS011;64715;44.760;37.678;2023-04-03T03:14:31;18.58;;;6.65;;
74922;SDS011;64715;44.760;37.678;2023-04-03T03:15:33;16.02;;;6.55;;
74922;SDS011;64715;44.760;37.678;2023-04-03T03:16:34;16.38;;;6.85;;
74922;SDS011;64715;44.760;37.678;2023-04-03T03:17:35;19.33;;;7.32;;
74922;SDS011;64715;44.760;37.678;2023-04-03T03:18:36;17.30;;;6.80;;
74922;SDS011;64715;44.760;37.678;2023-04-03T03:19:37;17.57;;;6.80;;
74922;SDS011;64715;44.760;37.678;2023-04-03T03:20:38;17.08;;;6.50;;
74922;SDS011;64715;44.760;37.678;2023-04-03T03:21:40;13.73;;;6.20;;
74922;SDS011;64715;44.760;37.678;2023-04-03T03:22:41;17.40;;;6.40;;
74922;SDS011;64715;44.760;37.678;2023-04-03T03:23:42;17.52;;;6.70;;
74922;SDS011;64715;44.760;37.678;2023-04-03T03:24:43;17.23;;;6.65;;
74922;SDS011;64715;44.760;37.678;2023-04-03T03:25:44;13.23;;;6.25;;
74922;SDS011;64715;44.760;37.678;2023-04-03T03:26:45;15.50;;;6.40;;
74922;SDS011;64715;44.760;37.678;2023-04-03T03:27:46;15.82;;;6.82;;
74922;SDS011;64715;44.760;37.678;2023-04-03T03:28:48;15.95;;;6.82;;
74922;SDS011;64715;44.760;37.678;2023-04-03T03:29:49;15.85;;;6.53;;
74922;SDS011;64715;44.760;37.678;2023-04-03T03:30:50;14.77;;;6.60;;
74922;SDS011;64715;44.760;37.678;2023-04-03T03:31:52;15.48;;;6.40;;
74922;SDS011;64715;44.760;37.678;2023-04-03T03:32:53;16.75;;;6.57;;
74922;SDS011;64715;44.760;37.678;2023-04-03T03:33:54;17.33;;;6.50;;
74922;SDS011;64715;44.760;37.678;2023-04-03T03:34:56;17.50;;;6.30;;
74922;SDS011;64715;44.760;37.678;2023-04-03T03:35:57;17.17;;;6.00;;
74922;SDS011;64715;44.760;37.678;2023-04-03T03:36:58;15.25;;;5.80;;
74922;SDS011;64715;44.760;37.678;2023-04-03T03:37:59;15.57;;;6.60;;
74922;SDS011;64715;44.760;37.678;2023-04-03T03:39:01;17.83;;;6.47;;
74922;SDS011;64715;44.760;37.678;2023-04-03T03:40:02;14.35;;;5.53;;
74922;SDS011;64715;44.760;37.678;2023-04-03T03:41:04;16.83;;;6.10;;
74922;SDS011;64715;44.760;37.678;2023-04-03T03:42:07;18.23;;;6.45;;
74922;SDS011;64715;44.760;37.678;2023-04-03T03:43:08;14.53;;;6.10;;
74922;SDS011;64715;44.760;37.678;2023-04-03T03:44:11;15.23;;;5.83;;
74922;SDS011;64715;44.760;37.678;2023-04-03T03:45:12;14.82;;;6.30;;
74922;SDS011;64715;44.760;37.678;2023-04-03T03:46:13;15.95;;;6.70;;
74922;SDS011;64715;44.760;37.678;2023-04-03T03:47:15;16.63;;;6.43;;
74922;SDS011;64715;44.760;37.678;2023-04-03T03:48:16;13.50;;;5.90;;
74922;SDS011;64715;44.760;37.678;2023-04-03T03:49:17;16.63;;;6.30;;
74922;SDS011;64715;44.760;37.678;2023-04-03T03:50:18;16.23;;;6.23;;
74922;SDS011;64715;44.760;37.678;2023-04-03T03:51:19;18.95;;;6.15;;
74922;SDS011;64715;44.760;37.678;2023-04-03T03:52:20;14.73;;;6.35;;
74922;SDS011;64715;44.760;37.678;2023-04-03T03:53:21;15.75;;;7.03;;
74922;SDS011;64715;44.760;37.678;2023-04-03T03:54:25;17.60;;;7.05;;
74922;SDS011;64715;44.760;37.678;2023-04-03T03:55:26;16.20;;;6.45;;
74922;SDS011;64715;44.760;37.678;2023-04-03T03:56:29;17.40;;;6.72;;
74922;SDS011;64715;44.760;37.678;2023-04-03T03:57:30;17.08;;;6.60;;
74922;SDS011;64715;44.760;37.678;2023-04-03T03:58:32;16.00;;;6.28;;
74922;SDS011;64715;44.760;37.678;2023-04-03T03:59:33;16.60;;;6.47;;
74922;SDS011;64715;44.760;37.678;2023-04-03T04:00:34;16.27;;;5.77;;
74922;SDS011;64715;44.760;37.678;2023-04-03T04:01:35;13.73;;;5.88;;
74922;SDS011;64715;44.760;37.678;2023-04-03T04:02:36;13.38;;;6.03;;
74922;SDS011;64715;44.760;37.678;2023-04-03T04:03:37;15.70;;;6.05;;
74922;SDS011;64715;44.760;37.678;2023-04-03T04:04:38;15.57;;;6.10;;
74922;SDS011;64715;44.760;37.678;2023-04-03T04:05:39;12.82;;;5.60;;
74922;SDS011;64715;44.760;37.678;2023-04-03T04:06:40;16.10;;;5.72;;
74922;SDS011;64715;44.760;37.678;2023-04-03T04:07:43;16.17;;;6.17;;
74922;SDS011;64715;44.760;37.678;2023-04-03T04:08:45;12.47;;;5.83;;
74922;SDS011;64715;44.760;37.678;2023-04-03T04:09:48;14.07;;;6.30;;
74922;SDS011;64715;44.760;37.678;2023-04-03T04:10:49;17.25;;;6.57;;
74922;SDS011;64715;44.760;37.678;2023-04-03T04:11:52;17.70;;;6.80;;
74922;SDS011;64715;44.760;37.678;2023-04-03T04:12:53;18.73;;;6.65;;
74922;SDS011;64715;44.760;37.678;2023-04-03T04:13:57;18.30;;;6.75;;
74922;SDS011;64715;44.760;37.678;2023-04-03T04:15:01;15.88;;;5.88;;
74922;SDS011;64715;44.760;37.678;2023-04-03T04:16:04;13.65;;;6.10;;
74922;SDS011;64715;44.760;37.678;2023-04-03T04:17:06;11.93;;;5.25;;
74922;SDS011;64715;44.760;37.678;2023-04-03T04:18:07;15.37;;;6.07;;
74922;SDS011;64715;44.760;37.678;2023-04-03T04:19:11;13.63;;;5.50;;
74922;SDS011;64715;44.760;37.678;2023-04-03T04:20:12;14.98;;;5.80;;
74922;SDS011;64715;44.760;37.678;2023-04-03T04:21:14;15.05;;;5.30;;
74922;SDS011;64715;44.760;37.678;2023-04-03T04:22:16;12.45;;;4.35;;
74922;SDS011;64715;44.760;37.678;2023-04-03T04:23:17;11.90;;;4.63;;
74922;SDS011;64715;44.760;37.678;2023-04-03T04:24:19;12.25;;;5.30;;
74922;SDS011;64715;44.760;37.678;2023-04-03T04:25:22;11.93;;;4.63;;
74922;SDS011;64715;44.760;37.678;2023-04-03T04:26:23;13.25;;;4.80;;
74922;SDS011;64715;44.760;37.678;2023-04-03T04:27:25;11.47;;;4.93;;
74922;SDS011;64715;44.760;37.678;2023-04-03T04:28:26;13.23;;;5.07;;
74922;SDS011;64715;44.760;37.678;2023-04-03T04:29:29;15.82;;;5.97;;
74922;SDS011;64715;44.760;37.678;2023-04-03T04:30:36;14.30;;;5.82;;
74922;SDS011;64715;44.760;37.678;2023-04-03T04:31:38;17.77;;;5.97;;
74922;SDS011;64715;44.760;37.678;2023-04-03T04:32:39;12.60;;;5.22;;
74922;SDS011;64715;44.760;37.678;2023-04-03T04:33:40;14.52;;;5.65;;
74922;SDS011;64715;44.760;37.678;2023-04-03T04:34:43;13.10;;;5.68;;
74922;SDS011;64715;44.760;37.678;2023-04-03T04:35:46;14.45;;;5.63;;
74922;SDS011;64715;44.760;37.678;2023-04-03T04:36:48;13.73;;;5.15;;
74922;SDS011;64715;44.760;37.678;2023-04-03T04:37:49;13.40;;;5.60;;
74922;SDS011;64715;44.760;37.678;2023-04-03T04:38:51;15.37;;;6.33;;
74922;SDS011;64715;44.760;37.678;2023-04-03T04:39:54;13.52;;;5.50;;
74922;SDS011;64715;44.760;37.678;2023-04-03T04:40:56;13.07;;;5.47;;
74922;SDS011;64715;44.760;37.678;2023-04-03T04:41:57;19.45;;;9.52;;
74922;SDS011;64715;44.760;37.678;2023-04-03T04:43:00;13.32;;;5.53;;
74922;SDS011;64715;44.760;37.678;2023-04-03T04:44:02;13.10;;;5.30;;
74922;SDS011;64715;44.760;37.678;2023-04-03T04:45:03;14.82;;;5.30;;
74922;SDS011;64715;44.760;37.678;2023-04-03T04:46:07;13.55;;;5.60;;
74922;SDS011;64715;44.760;37.678;2023-04-03T04:47:15;12.40;;;5.32;;
74922;SDS011;64715;44.760;37.678;2023-04-03T04:48:17;11.47;;;4.90;;
74922;SDS011;64715;44.760;37.678;2023-04-03T04:49:18;12.20;;;5.07;;
74922;SDS011;64715;44.760;37.678;2023-04-03T04:50:19;11.20;;;4.90;;
74922;SDS011;64715;44.760;37.678;2023-04-03T04:51:20;12.40;;;5.05;;
74922;SDS011;64715;44.760;37.678;2023-04-03T04:52:21;12.48;;;5.15;;
74922;SDS011;64715;44.760;37.678;2023-04-03T04:53:22;12.10;;;5.00;;
74922;SDS011;64715;44.760;37.678;2023-04-03T04:54:23;12.05;;;5.28;;
74922;SDS011;64715;44.760;37.678;2023-04-03T04:55:24;13.18;;;5.45;;
74922;SDS011;64715;44.760;37.678;2023-04-03T04:56:25;12.20;;;5.07;;
74922;SDS011;64715;44.760;37.678;2023-04-03T04:57:28;15.07;;;5.53;;
74922;SDS011;64715;44.760;37.678;2023-04-03T04:58:31;12.88;;;5.32;;
74922;SDS011;64715;44.760;37.678;2023-04-03T04:59:35;11.63;;;5.10;;
74922;SDS011;64715;44.760;37.678;2023-04-03T05:00:37;14.73;;;5.25;;
74922;SDS011;64715;44.760;37.678;2023-04-03T05:01:38;14.40;;;5.30;;
74922;SDS011;64715;44.760;37.678;2023-04-03T05:02:44;11.18;;;4.95;;
74922;SDS011;64715;44.760;37.678;2023-04-03T05:03:45;12.93;;;5.13;;
74922;SDS011;64715;44.760;37.678;2023-04-03T05:04:48;13.20;;;5.43;;
74922;SDS011;64715;44.760;37.678;2023-04-03T05:05:55;11.15;;;5.25;;
74922;SDS011;64715;44.760;37.678;2023-04-03T05:06:56;13.53;;;5.33;;
74922;SDS011;64715;44.760;37.678;2023-04-03T05:08:01;23.80;;;7.57;;
74922;SDS011;64715;44.760;37.678;2023-04-03T05:09:03;15.38;;;5.47;;
74922;SDS011;64715;44.760;37.678;2023-04-03T05:10:06;12.93;;;4.80;;
74922;SDS011;64715;44.760;37.678;2023-04-03T05:11:08;12.90;;;5.40;;
74922;SDS011;64715;44.760;37.678;2023-04-03T05:12:09;12.75;;;5.10;;
74922;SDS011;64715;44.760;37.678;2023-04-03T05:13:17;14.13;;;5.35;;
74922;SDS011;64715;44.760;37.678;2023-04-03T05:14:18;12.68;;;4.65;;
74922;SDS011;64715;44.760;37.678;2023-04-03T05:15:19;12.40;;;5.15;;
74922;SDS011;64715;44.760;37.678;2023-04-03T05:16:21;13.02;;;5.47;;
74922;SDS011;64715;44.760;37.678;2023-04-03T05:17:22;14.67;;;5.10;;
74922;SDS011;64715;44.760;37.678;2023-04-03T05:18:26;13.63;;;4.90;;
74922;SDS011;64715;44.760;37.678;2023-04-03T05:19:31;13.18;;;4.82;;
74922;SDS011;64715;44.760;37.678;2023-04-03T05:20:33;12.38;;;5.20;;
74922;SDS011;64715;44.760;37.678;2023-04-03T05:21:34;11.52;;;5.00;;
74922;SDS011;64715;44.760;37.678;2023-04-03T05:22:40;12.90;;;4.47;;
74922;SDS011;64715;44.760;37.678;2023-04-03T05:23:43;12.63;;;4.70;;
74922;SDS011;64715;44.760;37.678;2023-04-03T05:24:44;14.15;;;4.80;;
74922;SDS011;64715;44.760;37.678;2023-04-03T05:25:45;13.80;;;5.60;;
74922;SDS011;64715;44.760;37.678;2023-04-03T05:26:48;16.00;;;5.03;;
74922;SDS011;64715;44.760;37.678;2023-04-03T05:27:50;11.33;;;5.07;;
74922;SDS011;64715;44.760;37.678;2023-04-03T05:28:51;12.30;;;5.00;;
74922;SDS011;64715;44.760;37.678;2023-04-03T05:29:53;13.20;;;4.90;;
74922;SDS011;64715;44.760;37.678;2023-04-03T05:30:57;11.48;;;4.50;;
74922;SDS011;64715;44.760;37.678;2023-04-03T05:32:03;13.57;;;5.22;;
74922;SDS011;64715;44.760;37.678;2023-04-03T05:33:06;12.05;;;4.90;;
74922;SDS011;64715;44.760;37.678;2023-04-03T05:34:21;10.30;;;4.32;;
74922;SDS011;64715;44.760;37.678;2023-04-03T05:35:25;11.68;;;4.97;;
74922;SDS011;64715;44.760;37.678;2023-04-03T05:36:30;11.93;;;6.22;;
74922;SDS011;64715;44.760;37.678;2023-04-03T05:37:35;10.10;;;4.38;;
74922;SDS011;64715;44.760;37.678;2023-04-03T05:38:37;13.67;;;4.93;;
74922;SDS011;64715;44.760;37.678;2023-04-03T05:39:38;11.37;;;4.10;;
74922;SDS011;64715;44.760;37.678;2023-04-03T05:40:41;9.65;;;4.70;;
74922;SDS011;64715;44.760;37.678;2023-04-03T05:41:43;11.45;;;4.30;;
74922;SDS011;64715;44.760;37.678;2023-04-03T05:42:44;11.60;;;4.25;;
74922;SDS011;64715;44.760;37.678;2023-04-03T05:43:45;9.75;;;4.10;;
74922;SDS011;64715;44.760;37.678;2023-04-03T05:44:47;10.20;;;4.20;;
74922;SDS011;64715;44.760;37.678;2023-04-03T05:45:51;9.25;;;4.10;;
74922;SDS011;64715;44.760;37.678;2023-04-03T05:46:53;10.70;;;4.15;;
74922;SDS011;64715;44.760;37.678;2023-04-03T05:47:54;12.80;;;4.70;;
74922;SDS011;64715;44.760;37.678;2023-04-03T05:48:56;12.77;;;4.57;;
74922;SDS011;64715;44.760;37.678;2023-04-03T05:50:00;15.73;;;5.70;;
74922;SDS011;64715;44.760;37.678;2023-04-03T05:51:02;14.50;;;5.15;;
74922;SDS011;64715;44.760;37.678;2023-04-03T05:52:04;14.70;;;5.70;;
74922;SDS011;64715;44.760;37.678;2023-04-03T05:53:06;12.38;;;4.28;;
74922;SDS011;64715;44.760;37.678;2023-04-03T05:54:22;12.25;;;4.63;;
74922;SDS011;64715;44.760;37.678;2023-04-03T05:55:36;12.65;;;4.53;;
74922;SDS011;64715;44.760;37.678;2023-04-03T05:56:36;8.95;;;3.45;;
74922;SDS011;64715;44.760;37.678;2023-04-03T05:57:37;12.73;;;7.40;;
74922;SDS011;64715;44.760;37.678;2023-04-03T05:58:40;9.97;;;3.87;;
74922;SDS011;64715;44.760;37.678;2023-04-03T05:59:42;9.10;;;3.90;;
74922;SDS011;64715;44.760;37.678;2023-04-03T06:00:43;10.80;;;3.88;;
74922;SDS011;64715;44.760;37.678;2023-04-03T06:01:46;9.88;;;3.35;;
74922;SDS011;64715;44.760;37.678;2023-04-03T06:02:48;9.02;;;3.15;;
74922;SDS011;64715;44.760;37.678;2023-04-03T06:03:53;8.40;;;3.20;;
74922;SDS011;64715;44.760;37.678;2023-04-03T06:04:54;8.27;;;3.13;;
74922;SDS011;64715;44.760;37.678;2023-04-03T06:05:55;10.00;;;3.38;;
74922;SDS011;64715;44.760;37.678;2023-04-03T06:06:58;7.97;;;3.10;;
74922;SDS011;64715;44.760;37.678;2023-04-03T06:08:00;8.63;;;3.30;;
74922;SDS011;64715;44.760;37.678;2023-04-03T06:09:04;12.32;;;4.40;;
74922;SDS011;64715;44.760;37.678;2023-04-03T06:10:06;8.88;;;3.72;;
74922;SDS011;64715;44.760;37.678;2023-04-03T06:11:08;8.35;;;3.20;;
74922;SDS011;64715;44.760;37.678;2023-04-03T06:12:09;12.60;;;3.10;;